Time;durP1;ratioP1;P1;durP2;ratioP2;P2;SDS_P1;SDS_P2;PMS_P1;PMS_P2;Temp;Humidity;BMP_temperature;BMP_pressure;BME280_temperature;BME280_humidity;BME280_pressure;Samples;Min_cycle;Max_cycle;Signal;HPM_P1;HPM_P2
2022/11/22 00:02:04;;;;;;;13.43;2.72;;;9.70;75.40;;;;;;7381530;19;20004;-84
2022/11/22 00:04:35;;;;;;;16.17;2.53;;;9.60;75.50;;;;;;7399582;19;20118;-84
2022/11/22 00:07:06;;;;;;;12.02;1.98;;;9.50;75.60;;;;;;7379413;19;20117;-85
2022/11/22 00:09:39;;;;;;;13.75;1.73;;;9.50;75.70;;;;;;7375652;19;20035;-84
2022/11/22 00:12:09;;;;;;;16.02;2.60;;;9.60;75.90;;;;;;7373584;19;20033;-85
2022/11/22 00:14:39;;;;;;;14.90;2.63;;;9.60;75.80;;;;;;7375933;19;20045;-85
2022/11/22 00:17:09;;;;;;;13.10;2.40;;;9.70;75.60;;;;;;7373220;19;20015;-84
2022/11/22 00:19:41;;;;;;;18.07;2.47;;;9.70;75.40;;;;;;7395520;19;20038;-85
2022/11/22 00:22:10;;;;;;;;;;;9.70;75.20;;;;;;7374745;19;20022;-85
2022/11/22 00:24:43;;;;;;;23.65;2.45;;;9.60;75.40;;;;;;7374237;19;19981;-84
2022/11/22 00:27:14;;;;;;;10.43;2.08;;;9.40;75.50;;;;;;7374351;19;20051;-84
2022/11/22 00:29:44;;;;;;;16.80;2.75;;;9.30;75.70;;;;;;7375872;19;20017;-87
2022/11/22 00:32:15;;;;;;;17.90;2.20;;;9.50;76.00;;;;;;7373467;19;20110;-86
2022/11/22 00:34:45;;;;;;;17.50;2.72;;;9.50;75.60;;;;;;7380173;19;20275;-85
2022/11/22 00:37:16;;;;;;;8.70;2.00;;;9.60;75.70;;;;;;7394260;19;20014;-86
2022/11/22 00:39:50;;;;;;;14.90;2.35;;;9.60;75.50;;;;;;7374180;19;20015;-86
2022/11/22 00:42:21;;;;;;;15.00;2.58;;;9.60;75.50;;;;;;7374609;19;20033;-86
2022/11/22 00:44:52;;;;;;;11.52;2.40;;;9.60;75.20;;;;;;7373855;19;20037;-84
2022/11/22 00:47:25;;;;;;;15.77;2.65;;;9.70;75.10;;;;;;7373521;19;20024;-85
2022/11/22 00:49:56;;;;;;;11.65;1.92;;;9.70;75.10;;;;;;7371403;19;20026;-84
2022/11/22 00:52:27;;;;;;;12.65;1.92;;;9.70;75.10;;;;;;7392589;19;20051;-84
2022/11/22 00:55:00;;;;;;;16.90;2.38;;;9.70;75.10;;;;;;7373598;19;20006;-84
2022/11/22 00:57:30;;;;;;;18.75;2.00;;;9.50;74.80;;;;;;7369563;19;20021;-84
2022/11/22 01:00:01;;;;;;;11.77;2.13;;;9.60;75.20;;;;;;7371836;19;20078;-84
2022/11/22 01:02:33;;;;;;;15.60;2.15;;;9.60;75.10;;;;;;7372436;19;20014;-83
2022/11/22 01:05:05;;;;;;;10.82;2.20;;;9.60;74.90;;;;;;7372307;19;20024;-83
2022/11/22 01:07:35;;;;;;;16.80;2.22;;;9.60;74.90;;;;;;7391516;19;20053;-83
2022/11/22 01:10:10;;;;;;;15.65;2.20;;;9.70;74.90;;;;;;7373210;19;20029;-84
2022/11/22 01:12:42;;;;;;;29.65;2.78;;;9.70;74.90;;;;;;7372743;19;20035;-84
2022/11/22 01:15:13;;;;;;;;;;;9.80;74.90;;;;;;7371984;19;20580;-83
2022/11/22 01:17:45;;;;;;;18.52;2.50;;;9.90;74.90;;;;;;7372560;19;19915;-84
2022/11/22 01:20:16;;;;;;;18.88;3.00;;;9.80;74.40;;;;;;7370572;19;20019;-84
2022/11/22 01:22:48;;;;;;;12.43;2.40;;;9.80;74.30;;;;;;7370444;19;20013;-83
2022/11/22 01:25:22;;;;;;;14.98;2.05;;;9.70;74.50;;;;;;7393888;19;20014;-84
2022/11/22 01:27:54;;;;;;;22.08;3.03;;;9.70;74.60;;;;;;7372233;19;20040;-83
2022/11/22 01:30:25;;;;;;;11.63;2.50;;;9.80;74.50;;;;;;7375586;19;20031;-83
2022/11/22 01:32:55;;;;;;;15.48;2.17;;;9.80;74.60;;;;;;7372999;19;20039;-83
2022/11/22 01:35:25;;;;;;;9.68;2.38;;;9.80;74.30;;;;;;7372372;19;20035;-84
2022/11/22 01:37:57;;;;;;;14.23;2.13;;;9.80;74.50;;;;;;7374501;19;20070;-84
2022/11/22 01:40:34;;;;;;;;;;;9.70;74.50;;;;;;7396173;19;20029;-86
2022/11/22 01:43:08;;;;;;;13.80;2.63;;;9.80;74.80;;;;;;7375057;19;19986;-85
2022/11/22 01:45:48;;;;;;;13.18;1.75;;;9.80;74.60;;;;;;7375201;19;20460;-85
2022/11/22 01:48:32;;;;;;;17.77;2.42;;;9.90;74.50;;;;;;7377943;19;20419;-86
2022/11/22 01:51:09;;;;;;;17.35;2.40;;;9.90;74.60;;;;;;7373635;19;20006;-86
2022/11/22 01:53:44;;;;;;;15.70;2.25;;;9.80;74.90;;;;;;7370861;19;20018;-85
2022/11/22 01:56:24;;;;;;;14.80;2.20;;;9.90;74.90;;;;;;7373863;19;20035;-86
2022/11/22 01:59:00;;;;;;;16.75;3.15;;;9.90;75.10;;;;;;7372530;19;20032;-86
2022/11/22 02:01:34;;;;;;;11.45;1.90;;;10.00;75.10;;;;;;7393609;19;20018;-86
2022/11/22 02:04:07;;;;;;;12.85;2.38;;;10.00;74.70;;;;;;7371808;19;20011;-86
2022/11/22 02:06:44;;;;;;;12.05;2.30;;;10.00;74.70;;;;;;7373059;19;20014;-86
2022/11/22 02:09:17;;;;;;;10.50;1.95;;;9.90;75.00;;;;;;7372266;19;20014;-85
2022/11/22 02:11:54;;;;;;;14.88;1.70;;;9.80;75.40;;;;;;7371178;19;20017;-85
2022/11/22 02:14:28;;;;;;;6.78;1.95;;;9.80;76.20;;;;;;7375122;19;20033;-85
2022/11/22 02:16:59;;;;;;;16.25;2.60;;;9.90;75.40;;;;;;7375062;19;20059;-85
2022/11/22 02:19:40;;;;;;;9.30;1.70;;;9.90;75.00;;;;;;7403014;19;20018;-85
2022/11/22 02:22:29;;;;;;;8.10;1.98;;;9.80;75.00;;;;;;7389016;19;20045;-86
2022/11/22 02:25:06;;;;;;;12.27;2.00;;;9.80;75.20;;;;;;7381939;19;20102;-86
2022/11/22 02:27:41;;;;;;;12.18;1.98;;;9.70;75.90;;;;;;7382071;19;20018;-85
2022/11/22 02:30:16;;;;;;;22.15;2.47;;;9.70;76.20;;;;;;7378677;19;20011;-85
2022/11/22 02:32:49;;;;;;;7.25;1.70;;;9.60;76.10;;;;;;7378888;19;20456;-85
2022/11/22 02:35:24;;;;;;;10.15;1.92;;;9.50;77.20;;;;;;7379212;19;20032;-85
2022/11/22 02:37:59;;;;;;;14.32;2.20;;;9.70;76.40;;;;;;7380709;19;20035;-85
2022/11/22 02:40:35;;;;;;;18.98;2.08;;;9.80;76.10;;;;;;7398675;19;20139;-84
2022/11/22 02:43:13;;;;;;;10.70;2.28;;;9.90;76.10;;;;;;7378404;19;20042;-85
2022/11/22 02:45:46;;;;;;;9.27;1.92;;;9.80;75.90;;;;;;7377231;19;20028;-85
2022/11/22 02:48:21;;;;;;;14.48;2.35;;;9.90;75.90;;;;;;7377012;19;20017;-86
2022/11/22 02:50:53;;;;;;;11.10;1.75;;;9.90;75.90;;;;;;7377579;19;20531;-85
2022/11/22 02:53:25;;;;;;;10.13;1.58;;;10.00;75.80;;;;;;7379177;19;20511;-86
2022/11/22 02:55:56;;;;;;;14.20;2.45;;;10.00;75.80;;;;;;7375142;19;20019;-85
2022/11/22 02:58:32;;;;;;;18.95;1.73;;;10.00;75.90;;;;;;7399795;19;20011;-84
2022/11/22 03:01:06;;;;;;;11.90;1.92;;;10.00;75.90;;;;;;7377643;19;20028;-85
2022/11/22 03:03:39;;;;;;;16.27;1.70;;;9.90;76.20;;;;;;7375597;19;20343;-84
2022/11/22 03:06:11;;;;;;;15.63;1.77;;;9.80;76.40;;;;;;7375044;19;20043;-85
2022/11/22 03:08:47;;;;;;;4.53;1.50;;;9.90;76.40;;;;;;7377372;19;20022;-84
2022/11/22 03:11:19;;;;;;;13.23;1.60;;;10.00;76.30;;;;;;7376537;19;20086;-84
2022/11/22 03:14:01;;;;;;;9.48;1.80;;;10.10;76.20;;;;;;7376596;19;20018;-84
2022/11/22 03:16:37;;;;;;;10.32;2.15;;;10.10;76.10;;;;;;7399463;19;20015;-84
2022/11/22 03:19:15;;;;;;;20.05;1.95;;;10.10;75.80;;;;;;7372572;19;20045;-84
2022/11/22 03:21:50;;;;;;;8.25;1.70;;;10.10;75.60;;;;;;7375162;19;20021;-84
2022/11/22 03:24:24;;;;;;;9.57;1.70;;;10.10;75.90;;;;;;7373150;19;20580;-84
2022/11/22 03:26:56;;;;;;;13.35;1.90;;;10.00;76.20;;;;;;7375362;19;20570;-86
2022/11/22 03:29:33;;;;;;;8.65;1.77;;;10.00;76.20;;;;;;7378666;19;20021;-84
2022/11/22 03:32:07;;;;;;;17.20;1.95;;;10.00;76.60;;;;;;7375070;19;22107;-84
2022/11/22 03:34:38;;;;;;;11.00;1.95;;;10.00;76.50;;;;;;7397791;19;20018;-85
2022/11/22 03:37:13;;;;;;;5.18;1.42;;;10.10;76.50;;;;;;7377773;19;20045;-84
2022/11/22 03:39:47;;;;;;;13.05;1.50;;;10.10;76.40;;;;;;7373449;19;20352;-84
2022/11/22 03:42:26;;;;;;;8.70;1.75;;;10.00;76.50;;;;;;7377273;19;20089;-85
2022/11/22 03:45:10;;;;;;;9.18;2.15;;;10.00;76.90;;;;;;7377298;19;20013;-85
2022/11/22 03:47:44;;;;;;;11.40;1.90;;;10.00;76.80;;;;;;7376172;19;20029;-85
2022/11/22 03:50:21;;;;;;;11.25;1.60;;;10.10;76.80;;;;;;7372996;19;20033;-86
2022/11/22 03:52:55;;;;;;;15.05;1.90;;;10.00;76.80;;;;;;7379172;19;20019;-85
2022/11/22 03:55:29;;;;;;;12.13;1.90;;;10.00;77.30;;;;;;7398492;19;20047;-85
2022/11/22 03:58:12;;;;;;;6.53;1.50;;;10.00;77.20;;;;;;7376161;19;20043;-85
2022/11/22 04:00:48;;;;;;;15.48;2.28;;;10.10;77.80;;;;;;7375821;19;20015;-84
2022/11/22 04:03:24;;;;;;;6.38;1.55;;;10.10;76.90;;;;;;7378757;19;20018;-84
2022/11/22 04:05:59;;;;;;;10.05;1.80;;;10.00;77.40;;;;;;7376675;19;20016;-86
2022/11/22 04:08:30;;;;;;;5.82;2.15;;;10.00;77.70;;;;;;7375402;19;20315;-85
2022/11/22 04:11:06;;;;;;;;;;;10.10;77.50;;;;;;7377865;19;20469;-85
2022/11/22 04:16:31;;;;;;;7.30;1.80;;;10.30;77.10;;;;;;7380304;19;20050;-86
2022/11/22 04:19:06;;;;;;;6.35;2.30;;;10.20;76.80;;;;;;7378489;19;20022;-85
2022/11/22 04:21:38;;;;;;;12.65;1.92;;;10.20;76.90;;;;;;7380884;19;20011;-85
2022/11/22 04:27:02;;;;;;;15.70;3.00;;;10.20;76.90;;;;;;7363087;19;20033;-85
2022/11/22 04:29:41;;;;;;;11.65;2.05;;;10.20;76.80;;;;;;7370579;19;20056;-85
2022/11/22 04:35:09;;;;;;;15.57;2.15;;;10.20;77.00;;;;;;7382850;19;20019;-84
2022/11/22 04:37:48;;;;;;;10.63;1.73;;;10.30;77.00;;;;;;7406871;19;20021;-85
2022/11/22 04:40:26;;;;;;;9.75;1.85;;;10.30;77.00;;;;;;7388002;19;20460;-85
2022/11/22 04:45:49;;;;;;;12.52;1.95;;;10.40;77.00;;;;;;7379721;19;20011;-85
2022/11/22 04:48:27;;;;;;;14.02;2.08;;;10.20;76.90;;;;;;7380280;19;20045;-85
2022/11/22 04:53:48;;;;;;;8.55;2.28;;;10.10;78.00;;;;;;7375938;19;20034;-84
2022/11/22 04:56:20;;;;;;;14.15;1.30;;;9.90;78.00;;;;;;7378494;19;20006;-84
2022/11/22 04:58:56;;;;;;;17.27;2.22;;;10.10;78.30;;;;;;7377024;19;20481;-85
2022/11/22 05:01:31;;;;;;;14.50;2.13;;;10.00;77.90;;;;;;7398277;19;20014;-85
2022/11/22 05:04:16;;;;;;;13.45;1.80;;;10.10;77.70;;;;;;7374006;19;20451;-86
2022/11/22 05:06:48;;;;;;;11.63;1.52;;;10.20;77.60;;;;;;7372429;19;20014;-86
2022/11/22 05:09:23;;;;;;;6.72;1.65;;;10.10;77.50;;;;;;7376161;19;20086;-86
2022/11/22 05:11:57;;;;;;;5.90;1.40;;;10.20;77.50;;;;;;7375575;19;20102;-88
2022/11/22 05:14:30;;;;;;;12.55;2.05;;;10.10;77.50;;;;;;7371255;19;20033;-87
2022/11/22 05:17:02;;;;;;;9.15;2.20;;;10.00;77.70;;;;;;7375153;19;20031;-87
2022/11/22 05:19:41;;;;;;;9.18;1.55;;;9.90;78.20;;;;;;7395500;19;20007;-87
2022/11/22 05:23:52;;;;;;;7.75;1.38;;;10.00;78.50;;;;;;7375050;19;20073;-86
2022/11/22 05:25:07;;;;;;;14.95;1.52;;;10.10;78.30;;;;;;7375517;19;20011;-84
2022/11/22 05:27:40;;;;;;;11.65;1.58;;;10.20;78.10;;;;;;7377368;19;20018;-85
2022/11/22 05:30:20;;;;;;;9.75;1.40;;;10.30;78.10;;;;;;7371834;19;20071;-84
2022/11/22 05:32:59;;;;;;;7.82;1.70;;;10.20;79.20;;;;;;7369555;19;20010;-85
2022/11/22 05:35:44;;;;;;;5.25;1.30;;;10.20;78.60;;;;;;7370036;19;20015;-84
2022/11/22 05:38:20;;;;;;;10.85;1.67;;;10.20;78.80;;;;;;7370688;19;20040;-83
2022/11/22 05:40:58;;;;;;;10.10;1.67;;;10.20;79.00;;;;;;7370362;19;20006;-83
2022/11/22 05:43:30;;;;;;;7.25;1.70;;;10.20;79.40;;;;;;7394972;19;20029;-84
2022/11/22 05:46:12;;;;;;;11.38;1.90;;;10.30;79.70;;;;;;7373390;19;20014;-85
2022/11/22 05:48:48;;;;;;;;;;;10.20;80.00;;;;;;7377923;19;20014;-84
2022/11/22 05:51:31;;;;;;;9.38;2.00;;;10.00;80.00;;;;;;7374313;19;19987;-84
2022/11/22 05:54:12;;;;;;;5.30;1.42;;;9.90;81.00;;;;;;7375752;19;20033;-84
2022/11/22 05:56:47;;;;;;;14.50;2.15;;;9.70;81.30;;;;;;7371538;19;20014;-84
2022/11/22 05:59:22;;;;;;;4.63;1.23;;;9.90;81.60;;;;;;7378541;19;20174;-84
2022/11/22 06:02:04;;;;;;;8.57;1.70;;;9.90;81.80;;;;;;7374538;19;20018;-84
2022/11/22 06:04:38;;;;;;;12.93;1.85;;;10.00;81.70;;;;;;7401595;19;20085;-85
2022/11/22 06:07:18;;;;;;;401.30;14.43;;;10.00;81.70;;;;;;7383153;19;20030;-84
2022/11/22 06:09:52;;;;;;;10.77;1.50;;;10.00;81.90;;;;;;7381336;19;20014;-85
2022/11/22 06:12:25;;;;;;;682.13;21.52;;;10.00;82.10;;;;;;7377066;19;20064;-86
2022/11/22 06:14:56;;;;;;;8.30;1.67;;;10.10;82.30;;;;;;7379109;19;20074;-86
2022/11/22 06:17:28;;;;;;;47.83;4.00;;;10.00;82.40;;;;;;7378305;19;20015;-86
2022/11/22 06:20:00;;;;;;;14.10;1.70;;;10.00;82.40;;;;;;7378637;19;20071;-86
2022/11/22 06:22:36;;;;;;;14.80;1.95;;;9.80;82.40;;;;;;7404145;19;20028;-86
2022/11/22 06:25:09;;;;;;;13.73;1.63;;;9.90;82.50;;;;;;7383271;19;20314;-86
2022/11/22 06:27:40;;;;;;;7.18;1.63;;;10.00;82.10;;;;;;7381411;19;20022;-85
2022/11/22 06:30:13;;;;;;;15.65;2.10;;;10.00;82.20;;;;;;7382435;19;20014;-85
2022/11/22 06:32:49;;;;;;;12.98;1.80;;;10.10;81.90;;;;;;7382733;19;20021;-84
2022/11/22 06:35:23;;;;;;;17.33;2.30;;;10.10;81.90;;;;;;7382246;19;20028;-84
2022/11/22 06:38:06;;;;;;;10.93;1.58;;;10.10;81.60;;;;;;7383261;19;20045;-85
2022/11/22 06:43:33;;;;;;;14.27;1.73;;;10.00;82.10;;;;;;7338962;19;20029;-86
2022/11/22 06:46:08;;;;;;;15.73;1.60;;;10.10;81.60;;;;;;7371335;19;20070;-85
2022/11/22 06:51:26;;;;;;;11.90;1.83;;;10.00;81.90;;;;;;7376051;19;20025;-86
2022/11/22 06:56:45;;;;;;;13.05;1.67;;;10.20;81.60;;;;;;7304173;19;20018;-83
2022/11/22 06:59:19;;;;;;;8.88;1.70;;;10.10;81.80;;;;;;7372866;19;20022;-84
2022/11/22 07:01:54;;;;;;;12.43;2.25;;;10.10;81.50;;;;;;7372741;19;20018;-84
2022/11/22 07:04:27;;;;;;;6.45;1.08;;;10.20;81.30;;;;;;7395724;19;20095;-85
2022/11/22 07:06:59;;;;;;;13.63;2.22;;;10.20;81.30;;;;;;7374155;19;20436;-85
2022/11/22 07:09:37;;;;;;;8.07;1.45;;;10.20;81.50;;;;;;7374849;19;20042;-85
2022/11/22 07:12:09;;;;;;;11.73;2.00;;;10.00;81.80;;;;;;7375094;19;20011;-84
2022/11/22 07:14:40;;;;;;;10.38;2.05;;;10.10;81.80;;;;;;7378195;19;20034;-83
2022/11/22 07:17:13;;;;;;;7.63;1.40;;;10.20;81.40;;;;;;7379625;19;20019;-84
2022/11/22 07:19:45;;;;;;;11.00;1.70;;;10.10;81.50;;;;;;7393799;19;20028;-83
2022/11/22 07:22:16;;;;;;;6.97;1.20;;;10.10;81.40;;;;;;7398667;19;20050;-84
2022/11/22 07:24:49;;;;;;;10.50;1.38;;;10.30;81.30;;;;;;7383928;19;20102;-84
2022/11/22 07:27:19;;;;;;;8.40;1.23;;;10.00;81.40;;;;;;7386851;19;20017;-84
2022/11/22 07:29:50;;;;;;;12.70;1.42;;;10.00;81.80;;;;;;7385483;19;20018;-85
2022/11/22 07:32:20;;;;;;;11.98;1.50;;;9.80;82.50;;;;;;7384838;19;20018;-85
2022/11/22 07:34:51;;;;;;;7.05;1.48;;;9.80;82.20;;;;;;7377042;19;20018;-84
2022/11/22 07:37:21;;;;;;;8.67;1.70;;;9.60;83.00;;;;;;7398167;19;20623;-84
2022/11/22 07:39:54;;;;;;;9.43;1.58;;;9.80;82.70;;;;;;7376208;19;20011;-85
2022/11/22 07:42:24;;;;;;;9.90;1.38;;;9.70;83.00;;;;;;7376261;19;20038;-85
2022/11/22 07:44:54;;;;;;;7.95;1.23;;;9.80;83.20;;;;;;7375026;19;20314;-85
2022/11/22 07:47:24;;;;;;;10.85;1.60;;;9.70;83.60;;;;;;7375278;19;20396;-84
2022/11/22 07:49:55;;;;;;;7.57;1.20;;;9.80;83.60;;;;;;7373233;19;20006;-84
2022/11/22 07:52:26;;;;;;;6.70;1.27;;;9.60;83.40;;;;;;7395234;19;20046;-86
2022/11/22 07:54:59;;;;;;;7.43;1.25;;;9.70;83.70;;;;;;7374208;19;20480;-84
2022/11/22 07:57:30;;;;;;;12.05;1.45;;;9.80;84.20;;;;;;7375304;19;20011;-84
2022/11/22 08:00:01;;;;;;;6.15;1.20;;;9.80;85.30;;;;;;7373289;19;20377;-85
2022/11/22 08:02:31;;;;;;;10.93;1.60;;;9.80;84.50;;;;;;7374731;19;20050;-83
2022/11/22 08:05:01;;;;;;;9.10;1.38;;;10.00;84.40;;;;;;7391851;19;20018;-84
2022/11/22 08:07:30;;;;;;;12.77;2.05;;;9.90;84.70;;;;;;7397449;19;20041;-85
2022/11/22 08:10:02;;;;;;;17.88;2.17;;;9.90;84.70;;;;;;7374465;19;20915;-82
2022/11/22 08:12:32;;;;;;;11.85;2.10;;;10.10;84.70;;;;;;7372536;19;20015;-82
2022/11/22 08:15:01;;;;;;;12.63;1.90;;;10.10;84.40;;;;;;7375080;19;20018;-84
2022/11/22 08:17:31;;;;;;;11.05;1.92;;;10.10;84.40;;;;;;7373128;19;20051;-83
2022/11/22 08:20:01;;;;;;;15.48;2.35;;;9.90;84.30;;;;;;7374653;19;20463;-85
2022/11/22 08:22:30;;;;;;;17.73;2.03;;;9.90;84.90;;;;;;7395611;19;20018;-84
2022/11/22 08:25:02;;;;;;;16.17;1.42;;;9.80;84.80;;;;;;7377281;19;20034;-85
2022/11/22 08:27:32;;;;;;;16.75;1.95;;;9.90;84.80;;;;;;7375003;19;20021;-85
2022/11/22 08:30:03;;;;;;;24.08;2.53;;;10.10;84.70;;;;;;7377783;19;20018;-84
2022/11/22 08:32:32;;;;;;;22.55;2.40;;;10.10;84.90;;;;;;7372757;19;20090;-89
2022/11/22 08:35:02;;;;;;;12.00;2.20;;;10.40;84.80;;;;;;7374627;19;20014;-90
2022/11/22 08:40:07;;;;;;;18.67;3.00;;;10.50;84.30;;;;;;7376662;19;20349;-87
2022/11/22 08:42:36;;;;;;;26.05;2.83;;;10.30;83.80;;;;;;7380085;19;20037;-89
2022/11/22 08:45:06;;;;;;;17.83;3.50;;;10.40;83.60;;;;;;7380788;19;20444;-89
2022/11/22 08:47:35;;;;;;;27.67;2.83;;;10.40;83.60;;;;;;7380760;19;20443;-88
2022/11/22 08:50:04;;;;;;;15.05;2.28;;;10.20;83.80;;;;;;7380887;19;20269;-86
2022/11/22 08:52:33;;;;;;;19.70;1.95;;;10.30;84.10;;;;;;7403240;19;20027;-89
2022/11/22 08:55:05;;;;;;;21.00;2.45;;;10.20;83.80;;;;;;7379135;19;20105;-89
2022/11/22 08:57:35;;;;;;;17.52;2.05;;;10.40;84.10;;;;;;7380473;19;20019;-88
2022/11/22 09:02:39;;;;;;;13.18;2.10;;;10.40;84.10;;;;;;7365532;19;20021;-91
2022/11/22 09:05:10;;;;;;;19.55;2.63;;;10.30;83.40;;;;;;7371545;19;20236;-86
2022/11/22 09:07:42;;;;;;;19.80;2.45;;;10.40;83.50;;;;;;7411609;19;20006;-87
2022/11/22 09:10:20;;;;;;;25.58;2.33;;;10.50;84.00;;;;;;7400867;19;20033;-89
2022/11/22 09:12:52;;;;;;;21.17;2.83;;;10.60;83.80;;;;;;7390163;19;20030;-89
2022/11/22 09:15:24;;;;;;;18.45;2.38;;;10.80;83.10;;;;;;7382271;19;20014;-87
2022/11/22 09:17:54;;;;;;;19.45;2.35;;;10.30;82.80;;;;;;7381528;19;20095;-87
2022/11/22 09:20:24;;;;;;;17.83;2.25;;;10.20;83.00;;;;;;7383467;19;20039;-85
2022/11/22 09:22:53;;;;;;;20.25;2.15;;;10.30;83.60;;;;;;7376885;19;20017;-88
2022/11/22 09:25:25;;;;;;;16.08;2.38;;;10.50;83.50;;;;;;7399749;19;20015;-87
2022/11/22 09:27:54;;;;;;;20.00;2.50;;;10.60;82.60;;;;;;7374254;19;20010;-82
2022/11/22 09:30:23;;;;;;;25.98;2.80;;;10.60;82.90;;;;;;7236760;19;20222;-83
2022/11/22 09:32:52;;;;;;;22.92;2.90;;;10.80;83.30;;;;;;7397735;19;20107;-92
2022/11/22 09:35:22;;;;;;;20.75;2.13;;;10.90;83.00;;;;;;7382691;19;20014;-89
2022/11/22 09:37:52;;;;;;;17.67;2.47;;;10.70;82.60;;;;;;7391518;19;20011;-87
2022/11/22 09:40:24;;;;;;;13.23;2.30;;;10.80;82.70;;;;;;7400310;19;20015;-86
2022/11/22 09:43:14;;;;;;;19.67;2.60;;;10.90;82.40;;;;;;7379457;19;20011;-90
2022/11/22 09:46:14;;;;;;;15.98;2.30;;;10.70;81.40;;;;;;7394000;19;19999;-86
2022/11/22 09:49:09;;;;;;;23.23;2.88;;;10.80;82.60;;;;;;7394819;19;20014;-86
2022/11/22 09:51:44;;;;;;;21.83;2.60;;;11.00;81.90;;;;;;7376011;19;20054;-87
2022/11/22 09:54:17;;;;;;;16.73;2.65;;;10.90;80.90;;;;;;7375855;19;20037;-89
2022/11/22 09:56:54;;;;;;;29.38;3.40;;;10.90;81.00;;;;;;7379976;19;20037;-87
2022/11/22 09:59:28;;;;;;;20.60;2.58;;;11.00;80.60;;;;;;7377135;19;20110;-87
2022/11/22 10:02:04;;;;;;;18.85;2.58;;;11.10;80.60;;;;;;7374907;19;20007;-87
2022/11/22 10:04:40;;;;;;;20.88;2.70;;;11.10;80.40;;;;;;7403140;19;20036;-86
2022/11/22 10:07:16;;;;;;;14.68;2.67;;;11.10;80.00;;;;;;7387247;19;20120;-89
2022/11/22 10:09:54;;;;;;;20.98;2.38;;;11.20;79.80;;;;;;7381574;19;20073;-88
2022/11/22 10:12:33;;;;;;;22.23;2.83;;;11.20;80.20;;;;;;7377265;19;20530;-85
2022/11/22 10:15:08;;;;;;;21.77;3.13;;;11.10;80.40;;;;;;7379014;19;20011;-85
2022/11/22 10:17:58;;;;;;;20.10;2.78;;;11.30;80.20;;;;;;7374421;19;20218;-86
2022/11/22 10:20:31;;;;;;;21.55;3.55;;;11.30;79.30;;;;;;7379939;19;20019;-89
2022/11/22 10:23:05;;;;;;;17.95;2.92;;;11.40;79.90;;;;;;7375877;19;20031;-87
2022/11/22 10:25:42;;;;;;;25.20;2.70;;;11.20;79.70;;;;;;7390718;19;20038;-85
2022/11/22 10:38:47;;;;;;;18.73;2.47;;;11.20;79.00;;;;;;7341897;19;20014;-91
2022/11/22 10:44:55;;;;;;;20.77;2.33;;;11.40;78.20;;;;;;7387748;19;20006;-93
2022/11/22 10:50:49;;;;;;;;;;;11.20;77.60;;;;;;7398490;19;20018;-93
2022/11/22 10:54:12;;;;;;;14.70;2.58;;;11.30;78.10;;;;;;7368254;19;19919;-89
2022/11/22 11:00:01;;;;;;;22.92;3.25;;;11.70;76.90;;;;;;7401928;19;20021;-94
2022/11/22 11:03:14;;;;;;;19.20;3.05;;;11.70;77.00;;;;;;7397900;19;20018;-92
2022/11/22 11:06:04;;;;;;;15.98;2.30;;;11.50;76.20;;;;;;7395349;19;20094;-90
2022/11/22 11:08:44;;;;;;;15.30;2.47;;;11.60;76.50;;;;;;7367763;19;20029;-88
2022/11/22 11:14:22;;;;;;;20.45;2.40;;;11.50;76.10;;;;;;7399999;19;20018;-84
2022/11/22 11:16:55;;;;;;;18.52;2.17;;;11.50;75.60;;;;;;7410175;19;20011;-90
2022/11/22 11:19:26;;;;;;;20.58;2.60;;;11.50;75.70;;;;;;7420252;19;20018;-86
2022/11/22 11:21:58;;;;;;;;;;;11.70;75.80;;;;;;7396411;19;20018;-88
2022/11/22 11:24:30;;;;;;;15.07;2.40;;;11.60;76.20;;;;;;7384766;19;19923;-88
2022/11/22 11:27:01;;;;;;;18.90;3.83;;;11.60;75.60;;;;;;7382341;19;20031;-87
2022/11/22 11:29:47;;;;;;;13.27;2.22;;;11.50;75.50;;;;;;7394299;19;20002;-89
2022/11/22 11:32:21;;;;;;;11.18;2.00;;;11.30;76.50;;;;;;7403645;19;20014;-90
2022/11/22 11:34:55;;;;;;;22.60;3.15;;;11.60;77.20;;;;;;7393028;19;20448;-88
2022/11/22 11:37:27;;;;;;;20.10;2.63;;;11.70;76.00;;;;;;7407849;19;20025;-88
2022/11/22 11:39:56;;;;;;;13.77;2.42;;;11.80;75.60;;;;;;7379641;19;20015;-88
2022/11/22 11:42:28;;;;;;;12.10;1.88;;;12.10;75.00;;;;;;7380875;19;20014;-88
2022/11/22 11:45:16;;;;;;;17.40;2.85;;;12.00;73.90;;;;;;7382946;19;20038;-89
2022/11/22 11:47:48;;;;;;;17.67;2.22;;;11.80;73.80;;;;;;7385026;19;20042;-87
2022/11/22 11:50:20;;;;;;;;;;;11.80;73.60;;;;;;7381770;19;20086;-87
2022/11/22 11:52:53;;;;;;;21.85;2.20;;;11.80;73.90;;;;;;7377889;19;19936;-86
2022/11/22 11:55:22;;;;;;;9.93;1.88;;;11.70;74.50;;;;;;7403779;19;20091;-86
2022/11/22 11:57:53;;;;;;;16.02;1.75;;;11.80;73.60;;;;;;7380728;19;20023;-86
2022/11/22 12:00:26;;;;;;;12.52;1.67;;;11.60;74.30;;;;;;7381497;19;20014;-87
2022/11/22 12:03:02;;;;;;;11.25;2.10;;;11.50;75.00;;;;;;7382764;19;20010;-88
2022/11/22 12:05:33;;;;;;;18.88;3.03;;;11.80;74.60;;;;;;7380017;19;20035;-87
2022/11/22 12:08:03;;;;;;;9.35;1.60;;;12.10;73.90;;;;;;7381749;19;20027;-87
2022/11/22 12:10:37;;;;;;;13.23;2.20;;;12.00;74.10;;;;;;7413482;19;20006;-87
2022/11/22 12:13:17;;;;;;;11.43;1.65;;;12.20;74.50;;;;;;7389888;19;20007;-88
2022/11/22 12:15:55;;;;;;;12.40;2.15;;;12.20;73.50;;;;;;7391330;19;20022;-84
2022/11/22 12:18:40;;;;;;;16.35;2.13;;;12.10;73.50;;;;;;7394358;19;20081;-83
2022/11/22 12:21:20;;;;;;;11.10;2.08;;;12.10;73.20;;;;;;7385115;19;20014;-83
2022/11/22 12:23:57;;;;;;;9.25;1.70;;;12.10;72.90;;;;;;7382990;19;20014;-83
2022/11/22 12:26:28;;;;;;;15.98;1.83;;;12.30;72.70;;;;;;7381524;19;20045;-86
2022/11/22 12:28:59;;;;;;;11.45;2.65;;;12.40;72.30;;;;;;7394332;19;20067;-89
2022/11/22 12:31:44;;;;;;;17.67;2.27;;;12.40;72.20;;;;;;7419218;19;20014;-90
2022/11/22 12:34:22;;;;;;;17.73;2.78;;;12.50;72.20;;;;;;7401820;19;20034;-90
2022/11/22 12:36:58;;;;;;;15.40;2.20;;;12.50;71.40;;;;;;7405730;19;20051;-90
2022/11/22 12:39:30;;;;;;;18.23;2.13;;;12.60;72.20;;;;;;7409322;19;20007;-90
2022/11/22 12:42:03;;;;;;;22.70;3.58;;;12.80;71.60;;;;;;7401737;19;20023;-85
2022/11/22 12:44:38;;;;;;;18.77;2.10;;;12.90;71.70;;;;;;7397358;19;20019;-86
2022/11/22 12:47:25;;;;;;;;;;;;;;;;;;;;;
2022/11/22 12:50:01;;;;;;;19.27;2.47;;;12.90;70.50;;;;;;7387565;19;20011;-80
2022/11/22 12:52:38;;;;;;;12.18;2.25;;;12.70;70.50;;;;;;7407802;19;20019;-82
2022/11/22 12:55:18;;;;;;;12.73;2.17;;;12.50;70.60;;;;;;7383430;19;20011;-82
2022/11/22 12:57:54;;;;;;;16.55;2.40;;;12.40;71.10;;;;;;7379495;19;20026;-81
2022/11/22 13:00:24;;;;;;;14.13;2.15;;;12.50;70.50;;;;;;7381169;19;20022;-81
2022/11/22 13:03:05;;;;;;;13.30;1.90;;;12.40;70.30;;;;;;7375406;19;20098;-81
2022/11/22 13:05:45;;;;;;;15.02;2.03;;;12.40;70.10;;;;;;7379089;19;20037;-84
2022/11/22 13:08:18;;;;;;;16.02;2.03;;;12.50;71.00;;;;;;7382569;19;20082;-86
2022/11/22 13:10:59;;;;;;;13.15;2.00;;;12.40;70.70;;;;;;7330096;19;20026;-85
2022/11/22 13:13:31;;;;;;;;;;;12.70;70.90;;;;;;7402071;19;20019;-88
2022/11/22 13:16:03;;;;;;;17.55;2.33;;;13.10;70.50;;;;;;7381815;19;19966;-88
2022/11/22 13:18:35;;;;;;;11.88;1.92;;;13.10;69.30;;;;;;7381725;19;20011;-88
2022/11/22 13:21:16;;;;;;;15.80;2.40;;;13.00;69.60;;;;;;7382317;19;20015;-87
2022/11/22 13:23:59;;;;;;;;;;;12.80;69.70;;;;;;7382428;19;20014;-86
2022/11/22 13:26:35;;;;;;;16.92;2.13;;;12.80;70.50;;;;;;7382781;19;19915;-87
2022/11/22 13:32:00;;;;;;;17.88;2.78;;;12.90;70.30;;;;;;7319984;19;20077;-87
2022/11/22 13:42:25;;;;;;;20.75;2.40;;;13.00;70.00;;;;;;7344710;19;20027;-88
2022/11/22 13:47:43;;;;;;;11.70;2.20;;;12.90;70.30;;;;;;7271314;19;20127;-87
2022/11/22 13:55:50;;;;;;;18.17;2.45;;;13.10;69.70;;;;;;7392126;19;20507;-91
2022/11/22 14:03:37;;;;;;;14.02;2.35;;;13.00;70.00;;;;;;7375331;19;20338;-87
2022/11/22 14:14:02;;;;;;;19.52;2.47;;;12.80;70.00;;;;;;7390951;19;20017;-88
2022/11/22 14:16:46;;;;;;;11.45;2.20;;;12.90;70.20;;;;;;7419307;19;20038;-90
2022/11/22 14:19:31;;;;;;;9.88;2.72;;;12.80;70.00;;;;;;7392593;19;20015;-88
2022/11/22 14:22:19;;;;;;;12.77;2.00;;;13.10;70.20;;;;;;7386659;19;20074;-90
2022/11/22 14:25:01;;;;;;;16.42;2.15;;;13.00;69.80;;;;;;7396852;19;20015;-88
2022/11/22 14:27:36;;;;;;;;;;;12.90;70.00;;;;;;7389783;19;20023;-90
2022/11/22 14:30:17;;;;;;;11.32;1.67;;;12.90;69.70;;;;;;7339088;19;19938;-89
2022/11/22 14:33:03;;;;;;;16.05;2.47;;;12.90;69.60;;;;;;7384072;19;20018;-88
2022/11/22 14:35:35;;;;;;;13.90;2.13;;;12.90;70.00;;;;;;7399901;19;20093;-90
2022/11/22 14:38:18;;;;;;;;;;;13.10;69.60;;;;;;7398133;19;20003;-91
2022/11/22 14:40:47;;;;;;;20.02;2.38;;;13.20;69.60;;;;;;7387013;19;20288;-90
2022/11/22 14:43:39;;;;;;;17.13;2.58;;;13.20;68.50;;;;;;7406080;19;20425;-86
2022/11/22 14:46:21;;;;;;;16.10;2.10;;;13.00;68.80;;;;;;7383743;19;20023;-87
2022/11/22 14:49:02;;;;;;;17.77;2.05;;;12.80;69.60;;;;;;7383525;19;20109;-89